Lumber City, Georgia
Current Conditions -  °F | °C
As of 7:15 PM on Tuesday 25 Nov 2014 (Local Time) from KAZE Reporting Station
Broken Clouds Broken Clouds  
Wind Chill: 52°   Ceiling: 6000
Heat Index: 52°   Visibility: 10mi
Dew Point: 52°   Wind: 5mph
Humidity: 100%   Direction: 340°NNW
Pressure: 30.01"   Gusts: NA
Location:  31.93°N, 82.68°W
Report Text: KAZE 260015Z AUTO 34004KT 10SM BKN060 BKN070 11/11 A3001 RMK AO2 T01120112
Loading
Personal Weather Stations






























Interactive Weather Map New forecast layout! Learn more

10-Day Weather Forecast

Advertisements
Track Severe Weather on mobile